Crew | Aerofun Virtual



 METAR AND TAF INFORMATION
METAR FOR GCGM
ADDS - METARS form results

(2147 UTC 26 February 2020)
Data provider http://aviationweather.gov/metar/data/
 
METAR text: GCGM 262130Z AUTO 23005KT 9999 FEW007 17/15 Q1022 RMK R09/23003KT 180V280 ARP/24004KT 190V280
Conditions at: GCGM (LA GOMERA ARPT , ES) observed 2130 UTC 26 February 2020
Temperature: 17.0°C (63°F)
Dewpoint: 15.0°C (59°F) [RH = 88%]
Pressure (altimeter): 30.18 inches Hg (1022.0 mb)
Winds: from the SW (230 degrees) at 6 MPH (5 knots; 2.6 m/s)
Visibility: 6 or more miles (10+ km)
Ceiling: at least 12,000 feet AGL
Clouds: few clouds at 700 feet AGL
Weather: no significant weather observed at this time

METAR text: GCGM 262100Z AUTO 24005KT 210V280 9999 BKN008 17/15 Q1022 RMK R09/VRB02KT ARP/25003KT 180V300
Conditions at: GCGM (LA GOMERA ARPT , ES) observed 2100 UTC 26 February 2020
Temperature: 17.0°C (63°F)
Dewpoint: 15.0°C (59°F) [RH = 88%]
Pressure (altimeter): 30.18 inches Hg (1022.0 mb)
Winds: from the WSW (240 degrees) at 6 MPH (5 knots; 2.6 m/s)
Visibility: 6 or more miles (10+ km)
Ceiling: 800 feet AGL
Clouds: broken clouds at 800 feet AGL
Weather: no significant weather observed at this time

Forecast for: GCGM (LA GOMERA ARPT , ES)
Text: TAF GCGM 262000Z 2621/2721 VRB05KT CAVOK TX23/2714Z TN17/2706Z
Forecast period: 2100 UTC 26 February 2020 to 2100 UTC 27 February 2020
Forecast type: FROM: standard forecast or significant change
Winds: variable direction winds at 6 MPH (5 knots; 2.6 m/s)
Visibility: 6 or more miles 10+ km)
Ceiling: unknown
Clouds: missing
Weather: no significant weather forecast for this period

 AIRPORT MAP

 RUNWAY INFORMATION
Runway 09 Runway length 4921 ft Runway width 98 ft
Runway elevation 716 ft Runway displaced threshold 0 ft Runway heading 81
Runway 27 Runway length 4921 ft Runway width 98 ft
Runway elevation 712 ft Runway displaced threshold 0 ft Runway heading 261

 AIRPORT FREQUENCIES
Type GND Name GND Frequency 121.7 MHZ
Type TWR Name TWR Frequency 118.4 MHZ

 AIRPORT NEAR NAVIGATION AIDS
Type VOR-DME Name La Gomera Frequency 116000 KHZ